sensor_id;sensor_type;location;lat;lon;timestamp;pressure;altitude;pressure_sealevel;temperature;humidity
40155;BME280;25875;48.202;16.334;2023-01-19T00:01:27;97775.00;;;3.30;59.41
40155;BME280;25875;48.202;16.334;2023-01-19T00:03:54;97850.22;;;3.26;59.43
40155;BME280;25875;48.202;16.334;2023-01-19T00:06:23;96826.78;;;-2.28;58.72
40155;BME280;25875;48.202;16.334;2023-01-19T00:08:49;97840.97;;;3.02;59.38
40155;BME280;25875;48.202;16.334;2023-01-19T00:11:18;97810.66;;;3.15;58.89
40155;BME280;25875;48.202;16.334;2023-01-19T00:13:45;96916.53;;;-3.29;59.10
40155;BME280;25875;48.202;16.334;2023-01-19T00:16:15;96018.13;;;-7.31;58.60
40155;BME280;25875;48.202;16.334;2023-01-19T00:18:43;97762.00;;;3.11;59.34
40155;BME280;25875;48.202;16.334;2023-01-19T00:21:10;97770.75;;;3.10;59.35
40155;BME280;25875;48.202;16.334;2023-01-19T00:23:41;97346.50;;;0.46;58.96
40155;BME280;25875;48.202;16.334;2023-01-19T00:26:14;97586.00;;;1.49;59.01
40155;BME280;25875;48.202;16.334;2023-01-19T00:28:45;96907.22;;;-2.90;59.08
40155;BME280;25875;48.202;16.334;2023-01-19T00:31:15;97534.00;;;1.44;59.59
40155;BME280;25875;48.202;16.334;2023-01-19T00:33:45;96963.03;;;-1.79;59.33
40155;BME280;25875;48.202;16.334;2023-01-19T00:36:14;97767.84;;;2.99;59.68
40155;BME280;25875;48.202;16.334;2023-01-19T00:38:43;96869.63;;;-3.01;59.40
40155;BME280;25875;48.202;16.334;2023-01-19T00:41:09;97822.16;;;2.94;60.15
40155;BME280;25875;48.202;16.334;2023-01-19T00:43:36;96558.16;;;-4.71;59.37
40155;BME280;25875;48.202;16.334;2023-01-19T00:46:07;96046.47;;;-7.32;59.19
40155;BME280;25875;48.202;16.334;2023-01-19T00:48:34;97680.69;;;1.34;60.01
40155;BME280;25875;48.202;16.334;2023-01-19T00:51:01;97518.97;;;1.49;60.16
40155;BME280;25875;48.202;16.334;2023-01-19T00:53:28;97907.13;;;2.86;60.73
40155;BME280;25875;48.202;16.334;2023-01-19T00:55:58;95955.38;;;-7.95;59.95
40155;BME280;25875;48.202;16.334;2023-01-19T00:58:31;97742.44;;;2.83;60.40
40155;BME280;25875;48.202;16.334;2023-01-19T01:00:59;97694.09;;;2.56;60.68
40155;BME280;25875;48.202;16.334;2023-01-19T01:03:30;97748.50;;;2.84;60.64
40155;BME280;25875;48.202;16.334;2023-01-19T01:05:57;96839.06;;;-2.92;61.02
40155;BME280;25875;48.202;16.334;2023-01-19T01:08:27;97307.47;;;-0.31;60.86
40155;BME280;25875;48.202;16.334;2023-01-19T01:10:57;97346.31;;;-0.26;60.60
40155;BME280;25875;48.202;16.334;2023-01-19T01:13:36;97759.97;;;2.81;60.65
40155;BME280;25875;48.202;16.334;2023-01-19T01:16:06;97887.25;;;2.82;60.73
40155;BME280;25875;48.202;16.334;2023-01-19T01:18:34;96864.91;;;-2.91;60.86
40155;BME280;25875;48.202;16.334;2023-01-19T01:21:02;97773.06;;;2.81;60.72
40155;BME280;25875;48.202;16.334;2023-01-19T01:23:32;97250.13;;;-0.48;60.83
40155;BME280;25875;48.202;16.334;2023-01-19T01:25:59;97782.06;;;2.76;60.93
40155;BME280;25875;48.202;16.334;2023-01-19T01:28:26;97928.47;;;2.77;60.90
40155;BME280;25875;48.202;16.334;2023-01-19T01:30:55;96512.50;;;-5.61;60.25
40155;BME280;25875;48.202;16.334;2023-01-19T01:33:22;96561.03;;;-4.57;60.08
40155;BME280;25875;48.202;16.334;2023-01-19T01:35:49;97642.59;;;1.86;60.38
40155;BME280;25875;48.202;16.334;2023-01-19T01:38:16;97779.66;;;2.71;60.62
40155;BME280;25875;48.202;16.334;2023-01-19T01:40:43;97791.81;;;2.72;60.65
40155;BME280;25875;48.202;16.334;2023-01-19T01:43:10;97792.75;;;2.71;60.11
40155;BME280;25875;48.202;16.334;2023-01-19T01:45:38;97800.72;;;2.68;60.23
40155;BME280;25875;48.202;16.334;2023-01-19T01:48:09;97802.50;;;2.68;59.89
40155;BME280;25875;48.202;16.334;2023-01-19T01:50:41;97808.59;;;2.68;59.83
40155;BME280;25875;48.202;16.334;2023-01-19T01:53:30;97727.03;;;2.05;60.05
40155;BME280;25875;48.202;16.334;2023-01-19T01:55:58;97802.44;;;2.69;60.04
40155;BME280;25875;48.202;16.334;2023-01-19T01:58:26;97801.50;;;2.70;60.03
40155;BME280;25875;48.202;16.334;2023-01-19T02:00:53;97732.31;;;2.22;59.79
40155;BME280;25875;48.202;16.334;2023-01-19T02:03:39;97802.50;;;2.68;59.92
40155;BME280;25875;48.202;16.334;2023-01-19T02:06:06;97806.81;;;2.69;59.92
40155;BME280;25875;48.202;16.334;2023-01-19T02:08:37;97798.88;;;2.70;59.79
40155;BME280;25875;48.202;16.334;2023-01-19T02:11:24;97798.88;;;2.70;59.81
40155;BME280;25875;48.202;16.334;2023-01-19T02:14:08;97805.88;;;2.70;59.88
40155;BME280;25875;48.202;16.334;2023-01-19T02:16:35;97804.13;;;2.70;59.77
40155;BME280;25875;48.202;16.334;2023-01-19T02:19:04;97811.06;;;2.71;59.50
40155;BME280;25875;48.202;16.334;2023-01-19T02:21:38;97802.28;;;2.72;59.22
40155;BME280;25875;48.202;16.334;2023-01-19T02:24:09;97797.97;;;2.71;59.58
40155;BME280;25875;48.202;16.334;2023-01-19T02:26:38;97803.91;;;2.75;59.60
40155;BME280;25875;48.202;16.334;2023-01-19T02:29:08;97802.22;;;2.74;59.50
40155;BME280;25875;48.202;16.334;2023-01-19T02:31:37;97803.97;;;2.73;59.45
40155;BME280;25875;48.202;16.334;2023-01-19T02:34:05;97798.75;;;2.73;59.60
40155;BME280;25875;48.202;16.334;2023-01-19T02:36:37;97796.13;;;2.73;59.76
40155;BME280;25875;48.202;16.334;2023-01-19T02:39:08;97813.53;;;2.74;59.87
40155;BME280;25875;48.202;16.334;2023-01-19T02:41:38;97821.38;;;2.74;59.83
40155;BME280;25875;48.202;16.334;2023-01-19T02:44:07;97828.28;;;2.75;59.82
40155;BME280;25875;48.202;16.334;2023-01-19T02:46:35;97835.22;;;2.76;59.83
40155;BME280;25875;48.202;16.334;2023-01-19T02:49:02;97804.72;;;2.58;59.21
40155;BME280;25875;48.202;16.334;2023-01-19T02:51:28;97835.38;;;2.73;59.49
40155;BME280;25875;48.202;16.334;2023-01-19T02:54:29;97818.75;;;2.74;58.15
40155;BME280;25875;48.202;16.334;2023-01-19T02:57:19;97819.75;;;2.72;58.60
40155;BME280;25875;48.202;16.334;2023-01-19T03:00:01;97803.09;;;2.55;58.99
40155;BME280;25875;48.202;16.334;2023-01-19T03:02:36;97813.59;;;2.73;59.51
40155;BME280;25875;48.202;16.334;2023-01-19T03:05:15;97815.44;;;2.71;59.21
40155;BME280;25875;48.202;16.334;2023-01-19T03:07:52;97811.06;;;2.71;59.08
40155;BME280;25875;48.202;16.334;2023-01-19T03:10:29;97740.03;;;2.26;59.07
40155;BME280;25875;48.202;16.334;2023-01-19T03:13:01;97811.06;;;2.71;59.58
40155;BME280;25875;48.202;16.334;2023-01-19T03:15:34;97819.66;;;2.73;59.68
40155;BME280;25875;48.202;16.334;2023-01-19T03:18:07;97817.81;;;2.75;59.61
40155;BME280;25875;48.202;16.334;2023-01-19T03:20:36;97820.38;;;2.77;59.65
40155;BME280;25875;48.202;16.334;2023-01-19T03:23:07;97819.53;;;2.76;59.65
40155;BME280;25875;48.202;16.334;2023-01-19T03:25:40;97833.53;;;2.75;59.36
40155;BME280;25875;48.202;16.334;2023-01-19T03:28:08;97752.69;;;2.16;59.38
40155;BME280;25875;48.202;16.334;2023-01-19T03:30:39;97859.75;;;2.74;59.28
40155;BME280;25875;48.202;16.334;2023-01-19T03:33:10;97860.91;;;2.68;58.08
40155;BME280;25875;48.202;16.334;2023-01-19T03:35:44;97847.81;;;2.68;59.05
40155;BME280;25875;48.202;16.334;2023-01-19T03:38:14;97786.16;;;2.27;59.19
40155;BME280;25875;48.202;16.334;2023-01-19T03:40:44;97855.59;;;2.70;59.09
40155;BME280;25875;48.202;16.334;2023-01-19T03:43:14;97861.69;;;2.70;59.33
40155;BME280;25875;48.202;16.334;2023-01-19T03:45:42;97873.00;;;2.71;59.23
40155;BME280;25875;48.202;16.334;2023-01-19T03:48:09;97876.44;;;2.71;59.14
40155;BME280;25875;48.202;16.334;2023-01-19T03:50:36;97870.38;;;2.71;59.14
40155;BME280;25875;48.202;16.334;2023-01-19T03:53:08;97879.97;;;2.70;58.70
40155;BME280;25875;48.202;16.334;2023-01-19T03:55:36;97896.47;;;2.72;59.07
40155;BME280;25875;48.202;16.334;2023-01-19T03:58:05;97901.63;;;2.74;59.01
40155;BME280;25875;48.202;16.334;2023-01-19T04:00:32;97883.44;;;2.71;59.11
40155;BME280;25875;48.202;16.334;2023-01-19T04:03:00;97886.06;;;2.71;59.16
40155;BME280;25875;48.202;16.334;2023-01-19T04:05:27;97889.59;;;2.70;59.04
40155;BME280;25875;48.202;16.334;2023-01-19T04:07:54;97887.84;;;2.70;59.08
40155;BME280;25875;48.202;16.334;2023-01-19T04:10:21;97786.38;;;2.03;59.17
40155;BME280;25875;48.202;16.334;2023-01-19T04:12:48;97873.91;;;2.70;59.31
40155;BME280;25875;48.202;16.334;2023-01-19T04:15:16;97874.75;;;2.70;59.12
40155;BME280;25875;48.202;16.334;2023-01-19T04:17:43;97866.91;;;2.70;59.31
40155;BME280;25875;48.202;16.334;2023-01-19T04:20:10;97862.53;;;2.71;59.23
40155;BME280;25875;48.202;16.334;2023-01-19T04:22:37;97865.28;;;2.68;59.24
40155;BME280;25875;48.202;16.334;2023-01-19T04:25:06;97860.06;;;2.68;59.22
40155;BME280;25875;48.202;16.334;2023-01-19T04:27:33;97868.75;;;2.68;59.43
40155;BME280;25875;48.202;16.334;2023-01-19T04:29:59;97873.91;;;2.70;59.33
40155;BME280;25875;48.202;16.334;2023-01-19T04:32:29;97873.00;;;2.71;59.23
40155;BME280;25875;48.202;16.334;2023-01-19T04:34:56;97873.75;;;2.73;59.31
40155;BME280;25875;48.202;16.334;2023-01-19T04:37:23;97871.06;;;2.74;59.23
40155;BME280;25875;48.202;16.334;2023-01-19T04:39:49;97811.09;;;2.34;59.14
40155;BME280;25875;48.202;16.334;2023-01-19T04:42:16;97880.63;;;2.75;59.27
40155;BME280;25875;48.202;16.334;2023-01-19T04:44:43;97885.78;;;2.77;59.19
40155;BME280;25875;48.202;16.334;2023-01-19T04:47:10;97892.78;;;2.76;59.23
40155;BME280;25875;48.202;16.334;2023-01-19T04:49:38;97852.63;;;2.59;59.24
40155;BME280;25875;48.202;16.334;2023-01-19T04:52:05;97819.00;;;2.32;59.32
40155;BME280;25875;48.202;16.334;2023-01-19T04:54:32;97883.09;;;2.78;59.20
40155;BME280;25875;48.202;16.334;2023-01-19T04:56:59;97890.09;;;2.78;59.18
40155;BME280;25875;48.202;16.334;2023-01-19T04:59:25;97896.16;;;2.78;59.24
40155;BME280;25875;48.202;16.334;2023-01-19T05:01:52;97907.56;;;2.77;59.21
40155;BME280;25875;48.202;16.334;2023-01-19T05:04:20;97833.06;;;2.30;58.93
40155;BME280;25875;48.202;16.334;2023-01-19T05:06:48;97911.94;;;2.77;59.26
40155;BME280;25875;48.202;16.334;2023-01-19T05:09:16;97915.41;;;2.77;59.41
40155;BME280;25875;48.202;16.334;2023-01-19T05:11:43;97919.72;;;2.78;59.47
40155;BME280;25875;48.202;16.334;2023-01-19T05:14:09;97926.78;;;2.76;59.49
40155;BME280;25875;48.202;16.334;2023-01-19T05:16:36;97922.41;;;2.77;59.67
40155;BME280;25875;48.202;16.334;2023-01-19T05:19:03;97929.41;;;2.76;59.63
40155;BME280;25875;48.202;16.334;2023-01-19T05:21:30;97931.19;;;2.76;59.60
40155;BME280;25875;48.202;16.334;2023-01-19T05:23:58;97933.84;;;2.74;59.41
40155;BME280;25875;48.202;16.334;2023-01-19T05:26:25;97928.56;;;2.76;59.78
40155;BME280;25875;48.202;16.334;2023-01-19T05:28:51;97938.19;;;2.75;59.86
40155;BME280;25875;48.202;16.334;2023-01-19T05:31:18;97939.94;;;2.75;59.94
40155;BME280;25875;48.202;16.334;2023-01-19T05:33:45;97938.25;;;2.74;59.90
40155;BME280;25875;48.202;16.334;2023-01-19T05:36:12;97935.69;;;2.72;60.01
40155;BME280;25875;48.202;16.334;2023-01-19T05:38:39;97933.00;;;2.74;60.18
40155;BME280;25875;48.202;16.334;2023-01-19T05:41:07;97928.63;;;2.74;60.18
40155;BME280;25875;48.202;16.334;2023-01-19T05:43:34;97928.69;;;2.73;60.14
40155;BME280;25875;48.202;16.334;2023-01-19T05:46:02;97926.16;;;2.71;60.38
40155;BME280;25875;48.202;16.334;2023-01-19T05:48:29;97919.94;;;2.74;60.35
40155;BME280;25875;48.202;16.334;2023-01-19T05:50:57;97921.78;;;2.72;60.27
40155;BME280;25875;48.202;16.334;2023-01-19T05:53:23;97919.16;;;2.72;60.29
40155;BME280;25875;48.202;16.334;2023-01-19T05:55:50;97860.13;;;2.29;60.31
40155;BME280;25875;48.202;16.334;2023-01-19T05:58:18;97447.38;;;-0.16;60.31
40155;BME280;25875;48.202;16.334;2023-01-19T06:00:45;97923.41;;;2.74;60.44
40155;BME280;25875;48.202;16.334;2023-01-19T06:03:12;97906.72;;;2.77;60.57
40155;BME280;25875;48.202;16.334;2023-01-19T06:05:39;97908.47;;;2.76;60.40
40155;BME280;25875;48.202;16.334;2023-01-19T06:08:05;97917.16;;;2.77;60.53
40155;BME280;25875;48.202;16.334;2023-01-19T06:10:32;97924.19;;;2.76;60.57
40155;BME280;25875;48.202;16.334;2023-01-19T06:12:59;97923.41;;;2.74;60.41
40155;BME280;25875;48.202;16.334;2023-01-19T06:15:27;97926.00;;;2.74;60.49
40155;BME280;25875;48.202;16.334;2023-01-19T06:17:54;97940.88;;;2.74;60.56
40155;BME280;25875;48.202;16.334;2023-01-19T06:20:20;97951.41;;;2.72;60.72
40155;BME280;25875;48.202;16.334;2023-01-19T06:22:47;97960.09;;;2.73;60.75
40155;BME280;25875;48.202;16.334;2023-01-19T06:25:14;97959.25;;;2.72;60.68
40155;BME280;25875;48.202;16.334;2023-01-19T06:27:42;97958.41;;;2.72;60.54
40155;BME280;25875;48.202;16.334;2023-01-19T06:30:10;97950.63;;;2.70;60.84
40155;BME280;25875;48.202;16.334;2023-01-19T06:32:38;97950.63;;;2.70;60.59
40155;BME280;25875;48.202;16.334;2023-01-19T06:35:05;97947.09;;;2.71;60.86
40155;BME280;25875;48.202;16.334;2023-01-19T06:37:33;97947.88;;;2.73;60.74
40155;BME280;25875;48.202;16.334;2023-01-19T06:40:00;97948.78;;;2.72;60.64
40155;BME280;25875;48.202;16.334;2023-01-19T06:42:27;97845.41;;;2.07;60.72
40155;BME280;25875;48.202;16.334;2023-01-19T06:44:54;97938.31;;;2.72;60.80
40155;BME280;25875;48.202;16.334;2023-01-19T06:47:21;97927.91;;;2.71;60.80
40155;BME280;25875;48.202;16.334;2023-01-19T06:49:49;97928.00;;;2.69;60.86
40155;BME280;25875;48.202;16.334;2023-01-19T06:52:16;97921.06;;;2.68;60.74
40155;BME280;25875;48.202;16.334;2023-01-19T06:54:44;97815.75;;;2.08;60.93
40155;BME280;25875;48.202;16.334;2023-01-19T06:57:11;97908.91;;;2.67;60.95
40155;BME280;25875;48.202;16.334;2023-01-19T06:59:38;97911.44;;;2.69;60.92
40155;BME280;25875;48.202;16.334;2023-01-19T07:02:05;97928.84;;;2.70;61.01
40155;BME280;25875;48.202;16.334;2023-01-19T07:04:32;97948.06;;;2.69;60.93
40155;BME280;25875;48.202;16.334;2023-01-19T07:07:00;97965.53;;;2.68;60.98
40155;BME280;25875;48.202;16.334;2023-01-19T07:09:27;97972.53;;;2.68;61.04
40155;BME280;25875;48.202;16.334;2023-01-19T07:11:54;97972.59;;;2.66;61.10
40155;BME280;25875;48.202;16.334;2023-01-19T07:14:20;97946.34;;;2.49;60.95
40155;BME280;25875;48.202;16.334;2023-01-19T07:16:47;97995.28;;;2.66;60.96
40155;BME280;25875;48.202;16.334;2023-01-19T07:19:14;98004.78;;;2.68;60.97
40155;BME280;25875;48.202;16.334;2023-01-19T07:21:41;98005.63;;;2.69;60.93
40155;BME280;25875;48.202;16.334;2023-01-19T07:24:09;98016.09;;;2.69;60.85
40155;BME280;25875;48.202;16.334;2023-01-19T07:26:35;98008.38;;;2.66;60.97
40155;BME280;25875;48.202;16.334;2023-01-19T07:29:02;98023.03;;;2.70;60.85
40155;BME280;25875;48.202;16.334;2023-01-19T07:31:29;98018.72;;;2.69;60.79
40155;BME280;25875;48.202;16.334;2023-01-19T07:33:56;98010.78;;;2.70;60.94
40155;BME280;25875;48.202;16.334;2023-01-19T07:36:24;98010.78;;;2.70;60.78
40155;BME280;25875;48.202;16.334;2023-01-19T07:38:51;98019.47;;;2.71;60.85
40155;BME280;25875;48.202;16.334;2023-01-19T07:41:19;98011.56;;;2.72;60.82
40155;BME280;25875;48.202;16.334;2023-01-19T07:43:46;97985.41;;;2.72;60.86
40155;BME280;25875;48.202;16.334;2023-01-19T07:46:15;97973.19;;;2.73;60.83
40155;BME280;25875;48.202;16.334;2023-01-19T07:48:42;97968.78;;;2.73;60.99
40155;BME280;25875;48.202;16.334;2023-01-19T07:51:11;97966.09;;;2.75;60.98
40155;BME280;25875;48.202;16.334;2023-01-19T07:53:42;97958.25;;;2.75;60.96
40155;BME280;25875;48.202;16.334;2023-01-19T07:56:09;97953.03;;;2.75;60.99
40155;BME280;25875;48.202;16.334;2023-01-19T07:58:38;97856.78;;;2.06;60.98
40155;BME280;25875;48.202;16.334;2023-01-19T08:01:06;97976.84;;;2.69;61.15
40155;BME280;25875;48.202;16.334;2023-01-19T08:03:33;97992.47;;;2.70;61.19
40155;BME280;25875;48.202;16.334;2023-01-19T08:06:00;97981.09;;;2.71;61.29
40155;BME280;25875;48.202;16.334;2023-01-19T08:08:30;97982.84;;;2.71;61.37
40155;BME280;25875;48.202;16.334;2023-01-19T08:10:57;97989.84;;;2.70;61.32
40155;BME280;25875;48.202;16.334;2023-01-19T08:13:24;97993.31;;;2.71;61.29
40155;BME280;25875;48.202;16.334;2023-01-19T08:15:53;98002.88;;;2.72;61.36
40155;BME280;25875;48.202;16.334;2023-01-19T08:18:20;98028.13;;;2.73;61.31
40155;BME280;25875;48.202;16.334;2023-01-19T08:20:47;98026.56;;;2.69;61.38
40155;BME280;25875;48.202;16.334;2023-01-19T08:23:13;98038.66;;;2.71;61.30
40155;BME280;25875;48.202;16.334;2023-01-19T08:25:42;98042.97;;;2.72;61.48
40155;BME280;25875;48.202;16.334;2023-01-19T08:28:12;98044.66;;;2.73;61.16
40155;BME280;25875;48.202;16.334;2023-01-19T08:30:41;98025.97;;;2.62;61.41
40155;BME280;25875;48.202;16.334;2023-01-19T08:33:11;98042.81;;;2.75;61.53
40155;BME280;25875;48.202;16.334;2023-01-19T08:35:39;98034.91;;;2.77;61.32
40155;BME280;25875;48.202;16.334;2023-01-19T08:38:08;98029.53;;;2.80;61.32
40155;BME280;25875;48.202;16.334;2023-01-19T08:40:36;98029.47;;;2.81;61.49
40155;BME280;25875;48.202;16.334;2023-01-19T08:43:05;98024.31;;;2.80;61.23
40155;BME280;25875;48.202;16.334;2023-01-19T08:45:33;98021.47;;;2.84;61.31
40155;BME280;25875;48.202;16.334;2023-01-19T08:48:01;97872.28;;;1.90;61.41
40155;BME280;25875;48.202;16.334;2023-01-19T08:50:30;98024.88;;;2.86;61.25
40155;BME280;25875;48.202;16.334;2023-01-19T08:52:58;98031.66;;;2.91;61.22
40155;BME280;25875;48.202;16.334;2023-01-19T08:55:26;97878.81;;;2.01;61.17
40155;BME280;25875;48.202;16.334;2023-01-19T08:57:54;97559.13;;;0.11;60.77
40155;BME280;25875;48.202;16.334;2023-01-19T09:00:22;98043.63;;;2.96;61.02
40155;BME280;25875;48.202;16.334;2023-01-19T09:02:51;98043.69;;;2.95;61.03
40155;BME280;25875;48.202;16.334;2023-01-19T09:05:19;98042.72;;;2.97;60.91
40155;BME280;25875;48.202;16.334;2023-01-19T09:07:47;97962.38;;;2.41;60.91
40155;BME280;25875;48.202;16.334;2023-01-19T09:10:14;98016.25;;;2.84;60.93
40155;BME280;25875;48.202;16.334;2023-01-19T09:12:41;98051.13;;;3.04;60.91
40155;BME280;25875;48.202;16.334;2023-01-19T09:15:10;98058.00;;;3.06;60.90
40155;BME280;25875;48.202;16.334;2023-01-19T09:17:38;98054.41;;;3.09;60.79
40155;BME280;25875;48.202;16.334;2023-01-19T09:20:06;98044.63;;;3.12;60.71
40155;BME280;25875;48.202;16.334;2023-01-19T09:22:33;98050.66;;;3.14;60.66
40155;BME280;25875;48.202;16.334;2023-01-19T09:25:01;98046.25;;;3.15;60.37
40155;BME280;25875;48.202;16.334;2023-01-19T09:27:28;98049.72;;;3.15;60.40
40155;BME280;25875;48.202;16.334;2023-01-19T09:29:54;98042.66;;;3.17;60.20
40155;BME280;25875;48.202;16.334;2023-01-19T09:32:21;98053.19;;;3.16;60.19
40155;BME280;25875;48.202;16.334;2023-01-19T09:34:48;98038.97;;;3.03;60.12
40155;BME280;25875;48.202;16.334;2023-01-19T09:37:15;98053.13;;;3.17;60.13
40155;BME280;25875;48.202;16.334;2023-01-19T09:39:42;98045.97;;;3.21;59.96
40155;BME280;25875;48.202;16.334;2023-01-19T09:42:16;98043.34;;;3.21;59.50
40155;BME280;25875;48.202;16.334;2023-01-19T09:44:47;98042.56;;;3.19;59.88
40155;BME280;25875;48.202;16.334;2023-01-19T09:47:16;98052.13;;;3.20;59.72
40155;BME280;25875;48.202;16.334;2023-01-19T09:49:49;98053.19;;;3.16;59.52
40155;BME280;25875;48.202;16.334;2023-01-19T09:52:17;98053.97;;;3.18;59.73
40155;BME280;25875;48.202;16.334;2023-01-19T09:54:50;98052.91;;;3.22;59.81
40155;BME280;25875;48.202;16.334;2023-01-19T09:57:20;98043.06;;;3.27;59.79
40155;BME280;25875;48.202;16.334;2023-01-19T09:59:47;98051.69;;;3.29;59.65
40155;BME280;25875;48.202;16.334;2023-01-19T10:02:27;98057.72;;;3.31;59.25
40155;BME280;25875;48.202;16.334;2023-01-19T10:04:59;97946.50;;;2.65;59.37
40155;BME280;25875;48.202;16.334;2023-01-19T10:07:51;98052.19;;;3.37;58.51
40155;BME280;25875;48.202;16.334;2023-01-19T10:10:23;98044.28;;;3.39;59.36
40155;BME280;25875;48.202;16.334;2023-01-19T10:12:58;97948.22;;;2.84;58.80
40155;BME280;25875;48.202;16.334;2023-01-19T10:15:36;98052.47;;;3.50;58.71
40155;BME280;25875;48.202;16.334;2023-01-19T10:18:13;98040.91;;;3.54;58.23
40155;BME280;25875;48.202;16.334;2023-01-19T10:20:45;98049.41;;;3.59;58.99
40155;BME280;25875;48.202;16.334;2023-01-19T10:23:22;98054.34;;;3.65;58.56
40155;BME280;25875;48.202;16.334;2023-01-19T10:25:51;98055.97;;;3.68;58.81
40155;BME280;25875;48.202;16.334;2023-01-19T10:28:22;98047.91;;;3.72;58.44
40155;BME280;25875;48.202;16.334;2023-01-19T10:30:53;98057.31;;;3.76;58.52
40155;BME280;25875;48.202;16.334;2023-01-19T10:33:20;98043.91;;;3.82;58.56
40155;BME280;25875;48.202;16.334;2023-01-19T10:35:47;98046.22;;;3.89;58.50
40155;BME280;25875;48.202;16.334;2023-01-19T10:38:15;98041.69;;;3.92;58.33
40155;BME280;25875;48.202;16.334;2023-01-19T10:40:50;98051.25;;;3.93;58.20
40155;BME280;25875;48.202;16.334;2023-01-19T10:43:37;98016.31;;;3.75;57.38
40155;BME280;25875;48.202;16.334;2023-01-19T10:46:04;98055.78;;;3.90;56.89
40155;BME280;25875;48.202;16.334;2023-01-19T10:48:36;98039.91;;;3.93;57.73
40155;BME280;25875;48.202;16.334;2023-01-19T10:51:05;98035.22;;;3.99;58.16
40155;BME280;25875;48.202;16.334;2023-01-19T10:53:32;98048.25;;;4.01;57.96
40155;BME280;25875;48.202;16.334;2023-01-19T10:56:23;98050.03;;;4.00;56.68
40155;BME280;25875;48.202;16.334;2023-01-19T10:58:52;98051.81;;;4.00;57.85
40155;BME280;25875;48.202;16.334;2023-01-19T11:01:22;98057.75;;;4.03;57.80
40155;BME280;25875;48.202;16.334;2023-01-19T11:03:50;98054.34;;;4.01;57.49
40155;BME280;25875;48.202;16.334;2023-01-19T11:06:20;98056.19;;;3.99;56.78
40155;BME280;25875;48.202;16.334;2023-01-19T11:08:49;98062.28;;;4.00;56.89
40155;BME280;25875;48.202;16.334;2023-01-19T11:11:17;98052.81;;;3.97;56.98
40155;BME280;25875;48.202;16.334;2023-01-19T11:13:44;98057.75;;;4.03;56.74
40155;BME280;25875;48.202;16.334;2023-01-19T11:16:30;97988.31;;;3.59;56.34
40155;BME280;25875;48.202;16.334;2023-01-19T11:18:59;97956.69;;;3.44;56.49
40155;BME280;25875;48.202;16.334;2023-01-19T11:21:29;98055.97;;;4.04;56.37
40155;BME280;25875;48.202;16.334;2023-01-19T11:23:59;98061.59;;;3.96;55.90
40155;BME280;25875;48.202;16.334;2023-01-19T11:26:32;98072.38;;;3.90;55.74
40155;BME280;25875;48.202;16.334;2023-01-19T11:29:02;98065.59;;;3.86;55.92
40155;BME280;25875;48.202;16.334;2023-01-19T11:31:33;98004.22;;;3.37;55.04
40155;BME280;25875;48.202;16.334;2023-01-19T11:34:02;98079.41;;;3.71;54.59
40155;BME280;25875;48.202;16.334;2023-01-19T11:36:31;98014.56;;;3.21;54.23
40155;BME280;25875;48.202;16.334;2023-01-19T11:39:00;98071.00;;;3.64;53.72
40155;BME280;25875;48.202;16.334;2023-01-19T11:41:40;98072.16;;;3.59;53.61
40155;BME280;25875;48.202;16.334;2023-01-19T11:44:15;98087.09;;;3.57;51.64
40155;BME280;25875;48.202;16.334;2023-01-19T11:46:49;98075.75;;;3.56;52.48
40155;BME280;25875;48.202;16.334;2023-01-19T11:49:21;98086.31;;;3.55;53.00
40155;BME280;25875;48.202;16.334;2023-01-19T11:51:57;98069.66;;;3.56;52.80
40155;BME280;25875;48.202;16.334;2023-01-19T11:54:30;98073.00;;;3.59;52.17
40155;BME280;25875;48.202;16.334;2023-01-19T11:56:59;98076.38;;;3.61;53.64
40155;BME280;25875;48.202;16.334;2023-01-19T11:59:27;98070.22;;;3.62;53.70
40155;BME280;25875;48.202;16.334;2023-01-19T12:01:58;98074.53;;;3.63;53.06
40155;BME280;25875;48.202;16.334;2023-01-19T12:04:29;98073.63;;;3.64;53.89
40155;BME280;25875;48.202;16.334;2023-01-19T12:07:02;97921.06;;;2.68;53.13
40155;BME280;25875;48.202;16.334;2023-01-19T12:09:34;98080.78;;;3.61;53.25
40155;BME280;25875;48.202;16.334;2023-01-19T12:12:04;98077.38;;;3.59;53.02
40155;BME280;25875;48.202;16.334;2023-01-19T12:14:36;98079.38;;;3.53;52.41
40155;BME280;25875;48.202;16.334;2023-01-19T12:17:13;98074.28;;;3.50;51.38
40155;BME280;25875;48.202;16.334;2023-01-19T12:19:45;98077.97;;;3.46;52.42
40155;BME280;25875;48.202;16.334;2023-01-19T12:22:16;98080.09;;;3.38;49.35
40155;BME280;25875;48.202;16.334;2023-01-19T12:24:48;98078.47;;;3.36;52.58
40155;BME280;25875;48.202;16.334;2023-01-19T12:27:26;98056.66;;;3.16;51.88
40155;BME280;25875;48.202;16.334;2023-01-19T12:30:00;98083.84;;;3.33;53.21
40155;BME280;25875;48.202;16.334;2023-01-19T12:32:34;98099.63;;;3.31;52.26
40155;BME280;25875;48.202;16.334;2023-01-19T12:35:02;98039.72;;;2.86;53.48
40155;BME280;25875;48.202;16.334;2023-01-19T12:37:37;98089.84;;;3.35;52.52
40155;BME280;25875;48.202;16.334;2023-01-19T12:40:24;98085.47;;;3.35;51.93
40155;BME280;25875;48.202;16.334;2023-01-19T12:42:59;98080.44;;;3.31;52.15
40155;BME280;25875;48.202;16.334;2023-01-19T12:45:31;98094.44;;;3.30;53.02
40155;BME280;25875;48.202;16.334;2023-01-19T12:48:01;98090.13;;;3.29;53.83
40155;BME280;25875;48.202;16.334;2023-01-19T12:50:32;98080.50;;;3.29;53.71
40155;BME280;25875;48.202;16.334;2023-01-19T12:53:02;98084.75;;;3.32;53.76
40155;BME280;25875;48.202;16.334;2023-01-19T12:55:33;98078.66;;;3.31;53.95
40155;BME280;25875;48.202;16.334;2023-01-19T12:58:03;98076.97;;;3.30;54.16
40155;BME280;25875;48.202;16.334;2023-01-19T13:00:33;98076.97;;;3.30;54.01
40155;BME280;25875;48.202;16.334;2023-01-19T13:05:50;98079.53;;;3.32;53.66
40155;BME280;25875;48.202;16.334;2023-01-19T13:08:20;98093.47;;;3.32;54.00
40155;BME280;25875;48.202;16.334;2023-01-19T13:11:17;98083.91;;;3.31;53.12
40155;BME280;25875;48.202;16.334;2023-01-19T13:19:58;97953.84;;;2.38;54.64
40155;BME280;25875;48.202;16.334;2023-01-19T13:25:39;98112.78;;;3.30;55.57